createdAt,value
2023-03-14T00:00:40.939Z,9.09
2023-03-14T00:03:07.406Z,9.08
2023-03-14T00:05:35.249Z,9.07
2023-03-14T00:08:01.734Z,9.05
2023-03-14T00:10:28.126Z,9.05
2023-03-14T00:12:54.583Z,9.09
2023-03-14T00:15:21.041Z,9.11
2023-03-14T00:17:47.441Z,9.11
2023-03-14T00:20:13.884Z,9.10
2023-03-14T00:22:41.571Z,9.11
2023-03-14T00:25:09.787Z,9.14
2023-03-14T00:27:36.288Z,9.13
2023-03-14T00:30:05.614Z,9.14
2023-03-14T00:32:32.078Z,9.12
2023-03-14T00:34:58.570Z,9.12
2023-03-14T00:37:27.666Z,9.13
2023-03-14T00:39:54.098Z,9.16
2023-03-14T00:42:20.515Z,9.14
2023-03-14T00:44:46.934Z,9.11
2023-03-14T00:47:13.455Z,9.08
2023-03-14T00:49:39.859Z,9.03
2023-03-14T00:52:06.257Z,9.01
2023-03-14T00:54:32.887Z,8.95
2023-03-14T00:56:59.576Z,8.88
2023-03-14T00:59:25.943Z,8.84
2023-03-14T01:01:52.433Z,8.75
2023-03-14T01:04:19.315Z,8.72
2023-03-14T01:06:45.765Z,8.68
2023-03-14T01:09:12.286Z,8.65
2023-03-14T01:11:38.739Z,8.64
2023-03-14T01:14:05.689Z,8.62
2023-03-14T01:16:34.516Z,8.62
2023-03-14T01:19:02.299Z,8.60
2023-03-14T01:21:31.815Z,8.59
2023-03-14T01:24:00.180Z,8.52
2023-03-14T01:26:28.204Z,8.60
2023-03-14T01:28:56.008Z,8.59
2023-03-14T01:31:24.311Z,8.58
2023-03-14T01:33:51.154Z,8.59
2023-03-14T01:36:17.754Z,8.60
2023-03-14T01:38:45.009Z,8.61
2023-03-14T01:41:21.205Z,8.60
2023-03-14T01:43:49.000Z,8.62
2023-03-14T01:46:30.164Z,8.61
2023-03-14T01:49:03.042Z,8.59
2023-03-14T01:51:39.527Z,8.60
2023-03-14T01:54:15.728Z,8.59
2023-03-14T01:56:47.214Z,8.57
2023-03-14T01:59:14.060Z,8.56
2023-03-14T02:01:43.996Z,8.57
2023-03-14T02:04:11.156Z,8.58
2023-03-14T02:06:52.629Z,8.60
2023-03-14T02:09:22.344Z,8.59
2023-03-14T02:11:50.243Z,8.57
2023-03-14T02:14:48.644Z,8.56
2023-03-14T02:17:36.525Z,8.55
2023-03-14T02:20:22.667Z,8.54
2023-03-14T02:22:54.975Z,8.51
2023-03-14T02:25:36.740Z,8.52
2023-03-14T02:28:03.553Z,8.51
2023-03-14T02:30:31.922Z,8.52
2023-03-14T02:33:16.799Z,8.52
2023-03-14T02:35:54.588Z,8.53
2023-03-14T02:38:38.787Z,8.54
2023-03-14T02:41:06.465Z,8.57
2023-03-14T02:43:38.231Z,8.58
2023-03-14T02:46:13.022Z,8.58
2023-03-14T02:48:49.400Z,8.58
2023-03-14T02:51:17.562Z,8.59
2023-03-14T02:53:47.136Z,8.58
2023-03-14T02:56:15.136Z,8.60
2023-03-14T02:58:41.608Z,8.62
2023-03-14T03:01:19.781Z,8.61
2023-03-14T03:03:46.545Z,8.59
2023-03-14T03:06:13.032Z,8.59
2023-03-14T03:08:39.536Z,8.62
2023-03-14T03:11:06.550Z,8.60
2023-03-14T03:13:34.659Z,8.61
2023-03-14T03:16:03.667Z,8.61
2023-03-14T03:18:30.124Z,8.59
2023-03-14T03:21:00.163Z,8.59
2023-03-14T03:23:26.658Z,8.59
2023-03-14T03:25:53.228Z,8.54
2023-03-14T03:28:21.055Z,8.58
2023-03-14T03:30:47.976Z,8.57
2023-03-14T03:33:14.973Z,8.57
2023-03-14T03:35:50.622Z,8.57
2023-03-14T03:38:23.234Z,8.56
2023-03-14T03:40:53.212Z,8.54
2023-03-14T03:43:20.365Z,8.55
2023-03-14T03:45:49.092Z,8.53
2023-03-14T03:48:15.715Z,8.54
2023-03-14T03:50:48.529Z,8.56
2023-03-14T03:53:32.385Z,8.56
2023-03-14T03:56:00.590Z,8.60
2023-03-14T03:58:27.227Z,8.56
2023-03-14T04:00:53.652Z,8.56
2023-03-14T04:03:20.110Z,8.55
2023-03-14T04:05:46.836Z,8.53
2023-03-14T04:08:13.811Z,8.54
2023-03-14T04:10:40.304Z,8.54
2023-03-14T04:13:10.085Z,8.58
2023-03-14T04:15:38.723Z,8.57
2023-03-14T04:18:12.243Z,8.56
2023-03-14T04:20:38.648Z,8.55
2023-03-14T04:23:05.416Z,8.55
2023-03-14T04:25:31.919Z,8.53
2023-03-14T04:28:00.833Z,8.47
2023-03-14T04:30:29.777Z,8.50
2023-03-14T04:32:59.361Z,8.49
2023-03-14T04:35:27.880Z,8.48
2023-03-14T04:37:58.745Z,8.47
2023-03-14T04:40:25.730Z,8.42
2023-03-14T04:42:55.756Z,8.42
2023-03-14T04:45:22.886Z,8.41
2023-03-14T04:47:49.589Z,8.39
2023-03-14T04:50:18.992Z,8.40
2023-03-14T04:52:46.405Z,8.38
2023-03-14T04:55:13.038Z,8.38
2023-03-14T04:57:39.641Z,8.35
2023-03-14T05:00:11.064Z,8.34
2023-03-14T05:02:52.481Z,8.30
2023-03-14T05:05:26.797Z,8.30
2023-03-14T05:08:28.746Z,8.27
2023-03-14T05:11:12.699Z,8.27
2023-03-14T05:13:53.335Z,8.23
2023-03-14T05:16:44.996Z,8.23
2023-03-14T05:19:31.121Z,8.24
2023-03-14T05:22:17.908Z,8.19
2023-03-14T05:25:13.376Z,8.22
2023-03-14T05:28:02.792Z,8.19
2023-03-14T05:30:39.024Z,8.18
2023-03-14T05:33:24.280Z,8.17
2023-03-14T05:36:12.316Z,8.14
2023-03-14T05:38:54.045Z,8.15
2023-03-14T05:41:31.133Z,8.14
2023-03-14T05:44:23.702Z,8.15
2023-03-14T05:47:14.501Z,8.16
2023-03-14T05:50:01.394Z,8.17
2023-03-14T05:52:36.029Z,8.16
2023-03-14T05:55:19.421Z,8.16
2023-03-14T05:57:58.971Z,8.16
2023-03-14T06:00:44.020Z,8.16
2023-03-14T06:03:34.176Z,8.13
2023-03-14T06:06:00.874Z,8.14
2023-03-14T06:08:27.792Z,8.11
2023-03-14T06:10:54.692Z,8.13
2023-03-14T06:13:28.802Z,8.12
2023-03-14T06:15:55.291Z,8.10
2023-03-14T06:18:21.729Z,8.08
2023-03-14T06:20:48.863Z,8.09
2023-03-14T06:23:23.732Z,8.09
2023-03-14T06:25:50.458Z,8.08
2023-03-14T06:28:17.696Z,8.08
2023-03-14T06:30:44.362Z,8.07
2023-03-14T06:33:12.696Z,8.09
2023-03-14T06:35:41.346Z,8.09
2023-03-14T06:38:07.891Z,8.06
2023-03-14T06:40:34.462Z,8.08
2023-03-14T06:43:06.960Z,8.08
2023-03-14T06:45:39.069Z,8.08
2023-03-14T06:48:06.425Z,8.07
2023-03-14T06:50:40.180Z,8.06
2023-03-14T06:53:06.675Z,8.09
2023-03-14T06:55:35.425Z,8.11
2023-03-14T06:58:01.915Z,8.14
2023-03-14T07:00:29.219Z,8.19
2023-03-14T07:02:57.379Z,8.22
2023-03-14T07:05:37.700Z,8.28
2023-03-14T07:08:04.124Z,8.28
2023-03-14T07:10:30.601Z,8.32
2023-03-14T07:12:57.084Z,8.39
2023-03-14T07:15:26.657Z,8.45
2023-03-14T07:17:57.625Z,8.45
2023-03-14T07:20:25.036Z,8.45
2023-03-14T07:22:52.184Z,8.49
2023-03-14T07:25:26.219Z,8.49
2023-03-14T07:27:53.959Z,8.48
2023-03-14T07:30:20.502Z,8.49
2023-03-14T07:32:47.339Z,8.53
2023-03-14T07:35:14.619Z,8.54
2023-03-14T07:37:41.993Z,8.58
2023-03-14T07:40:11.453Z,8.62
2023-03-14T07:42:37.910Z,8.67
2023-03-14T07:45:30.164Z,8.77
2023-03-14T07:47:59.503Z,8.81
2023-03-14T07:50:26.931Z,8.89
2023-03-14T07:52:53.640Z,9.01
2023-03-14T07:55:20.148Z,9.11
2023-03-14T07:57:46.704Z,9.18
2023-03-14T08:00:16.082Z,9.23
2023-03-14T08:02:43.127Z,9.25
2023-03-14T08:05:10.313Z,9.25
2023-03-14T08:07:36.806Z,9.27
2023-03-14T08:10:03.729Z,9.34
2023-03-14T08:12:30.104Z,9.38
2023-03-14T08:14:56.550Z,9.42
2023-03-14T08:17:22.933Z,9.41
2023-03-14T08:19:49.359Z,9.55
2023-03-14T08:22:17.752Z,9.61
2023-03-14T08:24:45.772Z,9.68
2023-03-14T08:27:12.250Z,9.74
2023-03-14T08:29:38.716Z,9.80
2023-03-14T08:32:05.524Z,9.79
2023-03-14T08:34:34.327Z,9.91
2023-03-14T08:37:00.871Z,10.03
2023-03-14T08:39:27.385Z,10.21
2023-03-14T08:41:53.811Z,10.34
2023-03-14T08:44:20.997Z,10.45
2023-03-14T08:46:47.635Z,10.52
2023-03-14T08:49:15.767Z,10.62
2023-03-14T08:51:42.295Z,10.77
2023-03-14T08:54:11.790Z,10.92
2023-03-14T08:56:41.345Z,11.03
2023-03-14T08:59:09.062Z,11.19
2023-03-14T09:01:35.589Z,11.41
2023-03-14T09:04:02.073Z,11.49
2023-03-14T09:06:28.585Z,11.42
2023-03-14T09:08:55.044Z,11.46
2023-03-14T09:11:21.526Z,11.52
2023-03-14T09:13:48.029Z,11.46
2023-03-14T09:16:14.521Z,11.53
2023-03-14T09:18:40.962Z,11.58
2023-03-14T09:21:07.813Z,11.72
2023-03-14T09:23:34.288Z,11.75
2023-03-14T09:26:01.716Z,11.54
2023-03-14T09:28:28.631Z,11.43
2023-03-14T09:30:55.500Z,11.37
2023-03-14T09:33:22.261Z,11.33
2023-03-14T09:35:48.768Z,11.27
2023-03-14T09:38:15.219Z,11.26
2023-03-14T09:40:41.815Z,11.29
2023-03-14T09:43:15.115Z,11.32
2023-03-14T09:45:43.766Z,11.37
2023-03-14T09:48:17.815Z,11.39
2023-03-14T09:50:50.370Z,11.40
2023-03-14T09:53:19.745Z,11.36
2023-03-14T09:55:49.353Z,11.35
2023-03-14T09:58:25.733Z,11.28
2023-03-14T10:00:56.212Z,11.18
2023-03-14T10:03:32.140Z,11.08
2023-03-14T10:05:59.052Z,11.12
2023-03-14T10:08:25.985Z,11.20
2023-03-14T10:10:54.508Z,11.31
2023-03-14T10:13:28.963Z,11.42
2023-03-14T10:16:07.265Z,11.47
2023-03-14T10:18:37.028Z,11.49
2023-03-14T10:21:30.859Z,11.52
2023-03-14T10:24:27.132Z,11.58
2023-03-14T10:27:04.718Z,11.68
2023-03-14T10:29:33.589Z,11.72
2023-03-14T10:32:04.609Z,11.69
2023-03-14T10:34:33.583Z,11.94
2023-03-14T10:37:08.087Z,12.24
2023-03-14T10:39:34.564Z,12.49
2023-03-14T10:42:20.085Z,12.77
2023-03-14T10:44:51.819Z,12.86
2023-03-14T10:47:24.260Z,12.67
2023-03-14T10:49:51.424Z,12.43
2023-03-14T10:52:31.217Z,12.31
2023-03-14T10:55:12.728Z,12.18
2023-03-14T10:57:40.617Z,12.33
2023-03-14T11:00:12.563Z,12.44
2023-03-14T11:02:50.785Z,12.39
2023-03-14T11:05:32.616Z,12.49
2023-03-14T11:08:08.855Z,12.48
2023-03-14T11:10:38.649Z,12.47
2023-03-14T11:13:20.445Z,12.52
2023-03-14T11:15:57.825Z,12.73
2023-03-14T11:18:49.312Z,12.72
2023-03-14T11:21:25.757Z,12.77
2023-03-14T11:24:17.064Z,13.07
2023-03-14T11:26:47.366Z,13.07
2023-03-14T11:29:26.296Z,12.67
2023-03-14T11:31:58.459Z,12.44
2023-03-14T11:34:44.584Z,12.32
2023-03-14T11:37:27.167Z,12.28
2023-03-14T11:40:02.446Z,12.09
2023-03-14T11:42:30.433Z,12.01
2023-03-14T11:45:00.536Z,12.08
2023-03-14T11:47:34.178Z,12.14
2023-03-14T11:50:13.857Z,12.30
2023-03-14T11:52:55.142Z,12.40
2023-03-14T11:55:28.847Z,12.24
2023-03-14T11:58:02.228Z,11.94
2023-03-14T12:00:30.781Z,11.69
2023-03-14T12:03:25.011Z,11.46
2023-03-14T12:05:54.467Z,11.20
2023-03-14T12:08:33.891Z,11.01
2023-03-14T12:11:12.502Z,10.88
2023-03-14T12:13:41.025Z,10.73
2023-03-14T12:16:20.815Z,10.51
2023-03-14T12:18:47.365Z,10.38
2023-03-14T12:21:14.314Z,10.23
2023-03-14T12:23:50.769Z,10.16
2023-03-14T12:27:06.615Z,10.04
2023-03-14T12:29:33.163Z,9.92
2023-03-14T12:32:02.276Z,9.92
2023-03-14T12:34:31.807Z,9.81
2023-03-14T12:37:18.654Z,9.85
2023-03-14T12:40:12.061Z,9.80
2023-03-14T12:42:45.740Z,9.73
2023-03-14T12:45:26.267Z,9.66
2023-03-14T12:48:04.261Z,9.59
2023-03-14T12:50:46.519Z,9.56
2023-03-14T12:53:39.811Z,9.50
2023-03-14T12:56:24.069Z,9.52
2023-03-14T12:59:27.490Z,9.46
2023-03-14T13:02:28.608Z,9.36
2023-03-14T13:05:13.301Z,9.31
2023-03-14T13:07:48.793Z,9.24
2023-03-14T13:10:28.835Z,9.21
2023-03-14T13:13:04.401Z,9.14
2023-03-14T13:15:36.284Z,9.11
2023-03-14T13:18:16.488Z,9.07
2023-03-14T13:20:49.539Z,9.06
2023-03-14T13:23:29.279Z,9.06
2023-03-14T13:25:57.008Z,9.06
2023-03-14T13:28:23.973Z,9.04
2023-03-14T13:30:55.611Z,9.01
2023-03-14T13:33:23.730Z,8.98
2023-03-14T13:35:56.385Z,8.92
2023-03-14T13:38:28.363Z,8.91
2023-03-14T13:41:00.552Z,8.95
2023-03-14T13:43:34.089Z,9.02
2023-03-14T13:46:23.699Z,9.08
2023-03-14T13:48:55.424Z,9.08
2023-03-14T13:51:23.603Z,9.22
2023-03-14T13:53:52.732Z,9.25
2023-03-14T13:56:24.491Z,9.20
2023-03-14T13:58:51.110Z,9.19
2023-03-14T14:01:43.989Z,9.22
2023-03-14T14:04:16.784Z,9.21
2023-03-14T14:06:50.641Z,9.16
2023-03-14T14:09:25.611Z,9.02
2023-03-14T14:12:14.345Z,8.87
2023-03-14T14:14:55.842Z,8.72
2023-03-14T14:17:32.140Z,8.67
2023-03-14T14:20:01.092Z,8.62
2023-03-14T14:22:28.378Z,8.59
2023-03-14T14:24:55.276Z,8.57
2023-03-14T14:27:32.425Z,8.50
2023-03-14T14:30:06.100Z,8.33
2023-03-14T14:32:38.668Z,8.24
2023-03-14T14:35:06.340Z,8.14
2023-03-14T14:37:35.569Z,8.03
2023-03-14T14:40:19.543Z,8.01
2023-03-14T14:42:46.624Z,8.09
2023-03-14T14:45:24.835Z,8.16
2023-03-14T14:47:52.819Z,8.12
2023-03-14T14:50:30.116Z,8.17
2023-03-14T14:53:02.126Z,8.09
2023-03-14T14:55:40.081Z,7.95
2023-03-14T14:58:39.153Z,7.83
2023-03-14T15:01:12.653Z,7.79
2023-03-14T15:03:39.155Z,7.72
2023-03-14T15:06:05.803Z,7.71
2023-03-14T15:08:32.262Z,7.77
2023-03-14T15:10:59.170Z,7.84
2023-03-14T15:13:25.792Z,8.00
2023-03-14T15:15:57.007Z,8.12
2023-03-14T15:18:25.877Z,8.17
2023-03-14T15:20:52.848Z,8.28
2023-03-14T15:23:20.969Z,8.57
2023-03-14T15:25:55.553Z,8.58
2023-03-14T15:28:28.145Z,8.60
2023-03-14T15:30:56.989Z,8.40
2023-03-14T15:33:25.010Z,8.34
2023-03-14T15:35:51.793Z,8.12
2023-03-14T15:38:23.731Z,7.88
2023-03-14T15:40:51.530Z,7.72
2023-03-14T15:43:19.133Z,7.57
2023-03-14T15:45:45.857Z,7.41
2023-03-14T15:48:20.290Z,7.41
2023-03-14T15:50:46.811Z,7.47
2023-03-14T15:53:13.545Z,7.58
2023-03-14T15:55:40.109Z,7.73
2023-03-14T15:58:06.784Z,7.80
2023-03-14T16:00:33.308Z,8.04
2023-03-14T16:02:59.725Z,9.61
2023-03-14T16:05:26.218Z,10.27
2023-03-14T16:07:52.602Z,9.84
2023-03-14T16:10:19.145Z,9.00
2023-03-14T16:12:45.702Z,8.98
2023-03-14T16:15:12.101Z,9.32
2023-03-14T16:17:40.930Z,9.03
2023-03-14T16:20:08.496Z,10.41
2023-03-14T16:22:36.612Z,11.59
2023-03-14T16:25:05.697Z,11.02
2023-03-14T16:27:32.885Z,10.35
2023-03-14T16:30:00.477Z,9.89
2023-03-14T16:32:27.121Z,9.20
2023-03-14T16:34:54.141Z,8.86
2023-03-14T16:37:21.682Z,8.71
2023-03-14T16:40:11.021Z,8.73
2023-03-14T16:42:46.788Z,8.77
2023-03-14T16:45:17.103Z,10.07
2023-03-14T16:47:43.515Z,11.64
2023-03-14T16:50:10.244Z,12.76
2023-03-14T16:52:36.857Z,11.90
2023-03-14T16:55:04.607Z,10.34
2023-03-14T16:57:31.048Z,9.31
2023-03-14T16:59:57.530Z,8.66
2023-03-14T17:02:23.999Z,8.19
2023-03-14T17:04:50.589Z,7.86
2023-03-14T17:07:16.993Z,7.60
2023-03-14T17:09:43.413Z,7.37
2023-03-14T17:12:10.062Z,7.21
2023-03-14T17:14:36.453Z,7.02
2023-03-14T17:17:02.952Z,6.89
2023-03-14T17:19:29.441Z,6.80
2023-03-14T17:22:09.299Z,6.75
2023-03-14T17:24:42.324Z,6.65
2023-03-14T17:27:08.809Z,6.62
2023-03-14T17:29:35.352Z,6.57
2023-03-14T17:32:01.826Z,6.57
2023-03-14T17:34:28.223Z,6.54
2023-03-14T17:36:54.622Z,6.53
2023-03-14T17:39:21.076Z,6.53
2023-03-14T17:41:47.777Z,6.48
2023-03-14T17:44:14.172Z,6.48
2023-03-14T17:46:40.652Z,6.45
2023-03-14T17:49:07.162Z,6.42
2023-03-14T17:51:33.547Z,6.42
2023-03-14T17:54:00.037Z,6.40
2023-03-14T17:56:26.408Z,6.42
2023-03-14T17:58:54.116Z,6.43
2023-03-14T18:01:21.207Z,6.42
2023-03-14T18:03:48.045Z,6.42
2023-03-14T18:06:17.040Z,6.44
2023-03-14T18:08:43.983Z,6.46
2023-03-14T18:11:11.525Z,6.45
2023-03-14T18:13:38.565Z,6.49
2023-03-14T18:16:07.232Z,6.45
2023-03-14T18:18:33.923Z,6.50
2023-03-14T18:21:00.407Z,6.49
2023-03-14T18:23:26.787Z,6.49
2023-03-14T18:25:53.255Z,6.50
2023-03-14T18:28:21.111Z,6.49
2023-03-14T18:30:52.190Z,6.46
2023-03-14T18:33:20.673Z,6.37
2023-03-14T18:35:47.200Z,6.20
2023-03-14T18:38:13.791Z,6.01
2023-03-14T18:40:40.387Z,5.95
2023-03-14T18:43:06.820Z,5.87
2023-03-14T18:45:34.382Z,5.82
2023-03-14T18:48:00.817Z,5.78
2023-03-14T18:50:28.121Z,5.76
2023-03-14T18:52:54.657Z,5.70
2023-03-14T18:55:21.142Z,5.75
2023-03-14T18:57:47.554Z,5.76
2023-03-14T19:00:15.475Z,5.75
2023-03-14T19:02:41.993Z,5.79
2023-03-14T19:05:09.309Z,5.80
2023-03-14T19:07:35.780Z,5.81
2023-03-14T19:10:02.300Z,5.82
2023-03-14T19:12:29.605Z,5.75
2023-03-14T19:14:56.072Z,5.71
2023-03-14T19:17:22.863Z,5.70
2023-03-14T19:19:51.796Z,5.67
2023-03-14T19:22:18.198Z,5.64
2023-03-14T19:24:44.608Z,5.61
2023-03-14T19:27:11.172Z,5.53
2023-03-14T19:29:42.102Z,5.22
2023-03-14T19:32:12.564Z,4.89
2023-03-14T19:34:39.033Z,4.64
2023-03-14T19:37:05.499Z,4.47
2023-03-14T19:39:32.001Z,4.35
2023-03-14T19:41:59.425Z,4.26
2023-03-14T19:44:26.354Z,4.19
2023-03-14T19:46:53.331Z,4.13
2023-03-14T19:49:19.961Z,4.10
2023-03-14T19:51:46.383Z,4.07
2023-03-14T19:54:12.826Z,4.06
2023-03-14T19:56:40.213Z,4.04
2023-03-14T19:59:07.358Z,4.04
2023-03-14T20:01:35.133Z,4.06
2023-03-14T20:04:04.768Z,4.07
2023-03-14T20:06:31.398Z,4.07
2023-03-14T20:08:58.908Z,4.09
2023-03-14T20:11:25.626Z,4.09
2023-03-14T20:13:52.117Z,4.13
2023-03-14T20:16:18.674Z,4.15
2023-03-14T20:18:45.141Z,4.18
2023-03-14T20:21:15.494Z,4.25
2023-03-14T20:23:44.024Z,4.29
2023-03-14T20:26:10.919Z,4.35
2023-03-14T20:28:37.389Z,4.39
2023-03-14T20:31:06.446Z,4.40
2023-03-14T20:33:34.449Z,4.43
2023-03-14T20:36:00.961Z,4.47
2023-03-14T20:38:28.576Z,4.49
2023-03-14T20:40:59.551Z,4.54
2023-03-14T20:43:27.258Z,4.60
2023-03-14T20:45:55.413Z,4.63
2023-03-14T20:48:22.874Z,4.66
2023-03-14T20:50:49.373Z,4.68
2023-03-14T20:53:16.855Z,4.70
2023-03-14T20:55:43.336Z,4.72
2023-03-14T20:58:12.983Z,4.73
2023-03-14T21:00:40.420Z,4.74
2023-03-14T21:03:07.432Z,4.73
2023-03-14T21:05:34.730Z,4.76
2023-03-14T21:08:01.293Z,4.78
2023-03-14T21:10:28.107Z,4.73
2023-03-14T21:12:54.520Z,4.73
2023-03-14T21:15:21.939Z,4.72
2023-03-14T21:17:48.448Z,4.67
2023-03-14T21:20:16.632Z,4.66
2023-03-14T21:22:43.060Z,4.64
2023-03-14T21:25:09.656Z,4.62
2023-03-14T21:27:40.074Z,4.58
2023-03-14T21:30:07.930Z,4.62
2023-03-14T21:32:34.475Z,4.62
2023-03-14T21:35:00.985Z,4.65
2023-03-14T21:37:27.916Z,4.67
2023-03-14T21:39:54.987Z,4.68
2023-03-14T21:42:24.517Z,4.69
2023-03-14T21:44:52.158Z,4.72
2023-03-14T21:47:19.670Z,4.70
2023-03-14T21:49:47.097Z,4.63
2023-03-14T21:52:14.439Z,4.63
2023-03-14T21:54:43.232Z,4.56
2023-03-14T21:57:10.536Z,4.51
2023-03-14T21:59:38.070Z,4.50
2023-03-14T22:02:07.540Z,4.49
2023-03-14T22:04:36.911Z,4.50
2023-03-14T22:07:05.485Z,4.50
2023-03-14T22:09:32.581Z,4.47
2023-03-14T22:11:59.128Z,4.48
2023-03-14T22:14:25.765Z,4.44
2023-03-14T22:16:52.505Z,4.40
2023-03-14T22:19:19.475Z,4.41
2023-03-14T22:21:45.977Z,4.40
2023-03-14T22:24:12.495Z,4.36
2023-03-14T22:26:38.883Z,4.30
2023-03-14T22:29:05.558Z,4.22
2023-03-14T22:31:32.216Z,4.13
2023-03-14T22:33:58.680Z,4.07
2023-03-14T22:36:25.163Z,3.97
2023-03-14T22:38:51.557Z,3.95
2023-03-14T22:41:17.974Z,3.87
2023-03-14T22:43:44.441Z,3.79
2023-03-14T22:46:10.935Z,3.75
2023-03-14T22:48:37.393Z,3.65
2023-03-14T22:51:11.143Z,3.58
2023-03-14T22:53:39.090Z,3.60
2023-03-14T22:56:09.133Z,3.60
2023-03-14T22:58:36.091Z,3.57
2023-03-14T23:01:03.044Z,3.58
2023-03-14T23:03:29.851Z,3.53
2023-03-14T23:05:56.499Z,3.55
2023-03-14T23:08:23.199Z,3.56
2023-03-14T23:10:49.636Z,3.57
2023-03-14T23:13:16.035Z,3.54
2023-03-14T23:15:43.469Z,3.55
2023-03-14T23:18:11.930Z,3.56
2023-03-14T23:20:38.387Z,3.53
2023-03-14T23:23:08.358Z,3.55
2023-03-14T23:25:41.577Z,3.58
2023-03-14T23:28:18.965Z,3.61
2023-03-14T23:30:45.463Z,3.65
2023-03-14T23:33:11.968Z,3.65
2023-03-14T23:35:38.389Z,3.74
2023-03-14T23:38:04.861Z,3.76
2023-03-14T23:40:31.325Z,3.82
2023-03-14T23:42:57.722Z,3.78
2023-03-14T23:45:24.238Z,3.84
2023-03-14T23:47:50.680Z,3.85
2023-03-14T23:50:17.174Z,3.87
2023-03-14T23:52:43.645Z,3.87
2023-03-14T23:55:10.502Z,3.79
2023-03-14T23:57:36.990Z,3.80
